createdAt,value
2023-05-01T00:00:48.371Z,7.02
2023-05-01T00:01:48.528Z,7.00
2023-05-01T00:02:48.807Z,7.10
2023-05-01T00:03:49.149Z,7.06
2023-05-01T00:04:49.135Z,6.99
2023-05-01T00:05:49.355Z,7.05
2023-05-01T00:06:49.719Z,7.06
2023-05-01T00:07:49.753Z,7.00
2023-05-01T00:08:49.913Z,7.05
2023-05-01T00:09:50.101Z,7.05
2023-05-01T00:10:50.292Z,7.07
2023-05-01T00:11:50.742Z,6.99
2023-05-01T00:12:50.682Z,7.02
2023-05-01T00:13:50.878Z,7.05
2023-05-01T00:14:51.067Z,7.06
2023-05-01T00:15:51.307Z,7.03
2023-05-01T00:16:51.556Z,7.10
2023-05-01T00:17:51.998Z,6.99
2023-05-01T00:18:51.904Z,7.02
2023-05-01T00:19:52.090Z,6.99
2023-05-01T00:20:52.294Z,6.97
2023-05-01T00:21:52.552Z,6.97
2023-05-01T00:22:52.696Z,6.96
2023-05-01T00:23:52.891Z,6.97
2023-05-01T00:24:53.097Z,7.03
2023-05-01T00:25:53.330Z,6.97
2023-05-01T00:26:53.489Z,7.11
2023-05-01T00:27:53.704Z,7.07
2023-05-01T00:28:53.891Z,7.15
2023-05-01T00:29:54.479Z,7.07
2023-05-01T00:30:54.357Z,7.06
2023-05-01T00:31:54.508Z,7.00
2023-05-01T00:32:54.690Z,7.00
2023-05-01T00:33:54.853Z,7.07
2023-05-01T00:34:55.041Z,7.15
2023-05-01T00:35:55.278Z,7.03
2023-05-01T00:36:55.447Z,7.00
2023-05-01T00:37:55.670Z,7.02
2023-05-01T00:38:55.844Z,6.99
2023-05-01T00:39:56.175Z,6.99
2023-05-01T00:40:56.379Z,7.07
2023-05-01T00:41:56.432Z,7.00
2023-05-01T00:42:56.623Z,7.03
2023-05-01T00:43:56.821Z,6.96
2023-05-01T00:44:57.027Z,6.97
2023-05-01T00:45:57.307Z,6.97
2023-05-01T00:46:57.434Z,6.97
2023-05-01T00:47:57.688Z,6.99
2023-05-01T00:48:57.843Z,6.96
2023-05-01T00:49:58.251Z,7.05
2023-05-01T00:50:58.304Z,7.00
2023-05-01T00:51:58.611Z,7.02
2023-05-01T00:52:58.689Z,6.97
2023-05-01T00:53:58.928Z,6.99
2023-05-01T00:54:59.125Z,6.99
2023-05-01T00:55:59.309Z,6.97
2023-05-01T00:56:59.545Z,6.97
2023-05-01T00:57:59.737Z,6.95
2023-05-01T00:58:59.924Z,6.95
2023-05-01T01:00:00.260Z,6.93
2023-05-01T01:01:00.428Z,6.92
2023-05-01T01:02:00.582Z,6.96
2023-05-01T01:03:00.838Z,6.89
2023-05-01T01:04:01.113Z,6.78
2023-05-01T01:05:01.255Z,6.84
2023-05-01T01:06:01.519Z,6.81
2023-05-01T01:07:01.714Z,6.81
2023-05-01T01:08:01.981Z,6.82
2023-05-01T01:09:02.213Z,6.75
2023-05-01T01:10:02.410Z,6.82
2023-05-01T01:11:02.636Z,6.78
2023-05-01T01:12:02.874Z,6.85
2023-05-01T01:13:03.078Z,6.79
2023-05-01T01:14:03.336Z,6.77
2023-05-01T01:15:03.539Z,6.82
2023-05-01T01:16:03.797Z,6.72
2023-05-01T01:17:04.100Z,6.74
2023-05-01T01:18:04.318Z,6.77
2023-05-01T01:19:04.481Z,6.69
2023-05-01T01:20:04.713Z,6.69
2023-05-01T01:21:04.942Z,6.67
2023-05-01T01:22:05.232Z,6.67
2023-05-01T01:23:05.490Z,6.70
2023-05-01T01:24:05.644Z,6.66
2023-05-01T01:25:05.883Z,6.57
2023-05-01T01:26:06.107Z,6.52
2023-05-01T01:27:06.520Z,6.72
2023-05-01T01:28:06.593Z,6.57
2023-05-01T01:29:06.817Z,6.46
2023-05-01T01:30:07.065Z,6.52
2023-05-01T01:31:07.325Z,6.46
2023-05-01T01:32:07.679Z,6.46
2023-05-01T01:33:07.782Z,6.44
2023-05-01T01:34:07.965Z,6.46
2023-05-01T01:35:08.171Z,6.41
2023-05-01T01:36:08.393Z,6.42
2023-05-01T01:37:08.694Z,6.42
2023-05-01T01:38:08.896Z,6.38
2023-05-01T01:39:09.113Z,6.36
2023-05-01T01:40:09.364Z,6.38
2023-05-01T01:41:09.597Z,6.38
2023-05-01T01:42:09.901Z,6.35
2023-05-01T01:43:10.054Z,6.36
2023-05-01T01:44:10.301Z,6.35
2023-05-01T01:45:10.507Z,6.31
2023-05-01T01:46:10.866Z,6.31
2023-05-01T01:47:11.008Z,6.20
2023-05-01T01:48:11.285Z,6.26
2023-05-01T01:49:11.444Z,6.30
2023-05-01T01:50:11.649Z,6.16
2023-05-01T01:51:11.844Z,6.16
2023-05-01T01:52:12.119Z,6.31
2023-05-01T01:53:12.278Z,6.19
2023-05-01T01:54:12.456Z,6.30
2023-05-01T01:55:12.692Z,6.20
2023-05-01T01:56:12.899Z,6.14
2023-05-01T01:57:13.160Z,6.16
2023-05-01T01:58:13.325Z,6.22
2023-05-01T01:59:13.547Z,6.22
2023-05-01T02:00:13.787Z,6.24
2023-05-01T02:01:14.021Z,6.09
2023-05-01T02:02:14.222Z,6.12
2023-05-01T02:03:14.495Z,6.14
2023-05-01T02:04:14.786Z,6.16
2023-05-01T02:05:14.779Z,6.11
2023-05-01T02:06:15.033Z,6.20
2023-05-01T02:07:15.203Z,6.14
2023-05-01T02:08:15.393Z,6.19
2023-05-01T02:09:15.569Z,6.19
2023-05-01T02:10:15.775Z,6.24
2023-05-01T02:11:15.985Z,6.19
2023-05-01T02:12:16.262Z,6.11
2023-05-01T02:13:16.391Z,6.19
2023-05-01T02:14:16.614Z,6.19
2023-05-01T02:15:16.842Z,6.12
2023-05-01T02:16:17.124Z,6.11
2023-05-01T02:17:17.319Z,6.05
2023-05-01T02:18:17.466Z,6.04
2023-05-01T02:19:17.682Z,6.04
2023-05-01T02:20:17.898Z,5.90
2023-05-01T02:21:18.134Z,5.89
2023-05-01T02:22:18.435Z,5.86
2023-05-01T02:23:18.648Z,5.71
2023-05-01T02:24:18.839Z,5.80
2023-05-01T02:25:19.081Z,5.73
2023-05-01T02:26:19.331Z,5.71
2023-05-01T02:27:19.603Z,5.73
2023-05-01T02:28:19.829Z,5.69
2023-05-01T02:29:20.040Z,5.61
2023-05-01T02:30:20.295Z,5.69
2023-05-01T02:31:20.560Z,5.65
2023-05-01T02:32:20.859Z,5.69
2023-05-01T02:33:21.006Z,5.73
2023-05-01T02:34:21.273Z,5.69
2023-05-01T02:35:21.464Z,5.72
2023-05-01T02:36:21.677Z,5.82
2023-05-01T02:37:21.952Z,5.79
2023-05-01T02:38:22.115Z,5.80
2023-05-01T02:39:22.324Z,5.76
2023-05-01T02:40:22.534Z,5.82
2023-05-01T02:41:22.754Z,5.79
2023-05-01T02:42:23.255Z,5.73
2023-05-01T02:43:23.144Z,5.79
2023-05-01T02:44:23.365Z,5.76
2023-05-01T02:45:23.602Z,5.75
2023-05-01T02:46:23.852Z,5.87
2023-05-01T02:47:24.534Z,5.80
2023-05-01T02:48:24.234Z,5.84
2023-05-01T02:49:24.454Z,5.82
2023-05-01T02:50:24.680Z,5.83
2023-05-01T02:51:24.899Z,5.82
2023-05-01T02:52:25.130Z,5.87
2023-05-01T02:53:25.343Z,5.80
2023-05-01T02:54:25.526Z,5.86
2023-05-01T02:55:25.833Z,5.82
2023-05-01T02:56:26.010Z,5.91
2023-05-01T02:57:26.182Z,5.86
2023-05-01T02:58:26.391Z,5.87
2023-05-01T02:59:26.585Z,5.86
2023-05-01T03:00:26.809Z,5.83
2023-05-01T03:01:27.103Z,5.83
2023-05-01T03:02:27.258Z,5.86
2023-05-01T03:03:27.468Z,5.93
2023-05-01T03:04:27.746Z,5.90
2023-05-01T03:05:27.895Z,5.84
2023-05-01T03:06:28.216Z,5.90
2023-05-01T03:07:28.403Z,5.86
2023-05-01T03:08:28.638Z,5.84
2023-05-01T03:09:28.857Z,5.84
2023-05-01T03:10:29.107Z,5.83
2023-05-01T03:11:29.370Z,5.82
2023-05-01T03:12:29.641Z,5.83
2023-05-01T03:13:29.861Z,5.84
2023-05-01T03:14:30.105Z,5.84
2023-05-01T03:15:30.358Z,5.94
2023-05-01T03:16:30.678Z,5.84
2023-05-01T03:17:30.968Z,5.86
2023-05-01T03:18:31.084Z,5.87
2023-05-01T03:19:31.375Z,5.89
2023-05-01T03:20:31.621Z,5.80
2023-05-01T03:21:31.865Z,5.86
2023-05-01T03:22:32.127Z,5.83
2023-05-01T03:23:32.439Z,5.84
2023-05-01T03:24:32.735Z,5.84
2023-05-01T03:25:32.889Z,5.80
2023-05-01T03:26:33.131Z,5.84
2023-05-01T03:27:33.395Z,5.76
2023-05-01T03:28:33.642Z,5.79
2023-05-01T03:29:33.937Z,5.80
2023-05-01T03:30:34.150Z,5.73
2023-05-01T03:31:34.449Z,5.80
2023-05-01T03:32:34.720Z,5.84
2023-05-01T03:33:34.975Z,5.76
2023-05-01T03:34:35.229Z,5.75
2023-05-01T03:35:35.478Z,5.79
2023-05-01T03:36:35.698Z,5.75
2023-05-01T03:37:35.934Z,5.69
2023-05-01T03:38:36.201Z,5.65
2023-05-01T03:39:36.465Z,5.75
2023-05-01T03:40:36.709Z,5.75
2023-05-01T03:41:36.926Z,5.69
2023-05-01T03:42:37.203Z,5.75
2023-05-01T03:43:37.423Z,5.75
2023-05-01T03:44:37.678Z,5.69
2023-05-01T03:45:37.914Z,5.65
2023-05-01T03:46:38.289Z,5.65
2023-05-01T03:47:38.469Z,5.73
2023-05-01T03:48:38.652Z,5.65
2023-05-01T03:49:38.890Z,5.76
2023-05-01T03:50:39.161Z,5.73
2023-05-01T03:51:39.386Z,5.72
2023-05-01T03:52:39.577Z,5.71
2023-05-01T03:53:39.835Z,5.79
2023-05-01T03:54:40.060Z,5.69
2023-05-01T03:55:40.332Z,5.72
2023-05-01T03:56:40.579Z,5.79
2023-05-01T03:57:40.798Z,5.83
2023-05-01T03:58:41.048Z,5.73
2023-05-01T03:59:41.301Z,5.76
2023-05-01T04:00:41.516Z,5.73
2023-05-01T04:01:41.817Z,5.80
2023-05-01T04:02:42.204Z,5.80
2023-05-01T04:03:42.376Z,5.90
2023-05-01T04:04:42.540Z,5.86
2023-05-01T04:05:42.737Z,5.82
2023-05-01T04:06:43.113Z,5.86
2023-05-01T04:07:43.241Z,5.80
2023-05-01T04:08:43.505Z,5.84
2023-05-01T04:09:43.731Z,5.87
2023-05-01T04:10:43.984Z,5.93
2023-05-01T04:11:44.531Z,5.91
2023-05-01T04:12:44.478Z,5.84
2023-05-01T04:13:44.720Z,5.86
2023-05-01T04:14:44.953Z,5.90
2023-05-01T04:15:45.242Z,5.86
2023-05-01T04:16:45.592Z,5.94
2023-05-01T04:17:45.724Z,5.90
2023-05-01T04:18:45.973Z,6.07
2023-05-01T04:19:46.188Z,6.09
2023-05-01T04:20:46.441Z,6.11
2023-05-01T04:21:46.725Z,6.02
2023-05-01T04:22:46.987Z,6.04
2023-05-01T04:23:47.271Z,6.08
2023-05-01T04:24:47.458Z,6.14
2023-05-01T04:25:47.710Z,6.27
2023-05-01T04:26:47.965Z,6.27
2023-05-01T04:27:48.257Z,6.30
2023-05-01T04:28:48.454Z,6.33
2023-05-01T04:29:48.676Z,6.36
2023-05-01T04:30:48.934Z,6.31
2023-05-01T04:31:49.268Z,6.51
2023-05-01T04:32:49.535Z,6.36
2023-05-01T04:33:49.669Z,6.48
2023-05-01T04:34:49.915Z,6.54
2023-05-01T04:35:50.124Z,6.54
2023-05-01T04:36:50.329Z,6.60
2023-05-01T04:37:50.555Z,6.62
2023-05-01T04:38:50.801Z,6.66
2023-05-01T04:39:51.006Z,6.63
2023-05-01T04:40:51.191Z,6.66
2023-05-01T04:41:51.417Z,6.62
2023-05-01T04:42:51.643Z,6.77
2023-05-01T04:43:51.921Z,6.81
2023-05-01T04:44:52.096Z,6.87
2023-05-01T04:45:52.309Z,6.88
2023-05-01T04:46:52.568Z,6.97
2023-05-01T04:47:52.763Z,7.05
2023-05-01T04:48:53.081Z,6.99
2023-05-01T04:49:53.290Z,7.00
2023-05-01T04:50:53.413Z,7.14
2023-05-01T04:51:53.634Z,7.14
2023-05-01T04:52:53.875Z,7.18
2023-05-01T04:53:54.220Z,7.24
2023-05-01T04:54:54.313Z,7.25
2023-05-01T04:55:54.483Z,7.31
2023-05-01T04:56:54.723Z,7.36
2023-05-01T04:57:54.966Z,7.33
2023-05-01T04:58:55.174Z,7.43
2023-05-01T04:59:55.959Z,7.45
2023-05-01T05:00:55.622Z,7.48
2023-05-01T05:01:55.933Z,7.63
2023-05-01T05:02:56.228Z,7.63
2023-05-01T05:03:56.446Z,7.67
2023-05-01T05:04:56.771Z,7.63
2023-05-01T05:05:56.796Z,7.76
2023-05-01T05:06:56.946Z,7.76
2023-05-01T05:07:57.167Z,7.93
2023-05-01T05:08:57.415Z,7.90
2023-05-01T05:09:57.866Z,7.94
2023-05-01T05:10:57.883Z,8.01
2023-05-01T05:11:58.061Z,8.18
2023-05-01T05:12:58.285Z,8.36
2023-05-01T05:13:58.505Z,8.53
2023-05-01T05:14:58.759Z,8.71
2023-05-01T05:15:59.032Z,8.85
2023-05-01T05:16:59.284Z,8.94
2023-05-01T05:17:59.365Z,9.13
2023-05-01T05:18:59.575Z,9.28
2023-05-01T05:19:59.888Z,9.31
2023-05-01T05:21:00.012Z,9.55
2023-05-01T05:22:00.221Z,9.58
2023-05-01T05:23:00.405Z,9.73
2023-05-01T05:24:00.616Z,9.76
2023-05-01T05:25:00.821Z,9.89
2023-05-01T05:26:01.017Z,10.09
2023-05-01T05:27:01.263Z,10.16
2023-05-01T05:28:01.437Z,10.38
2023-05-01T05:29:01.676Z,10.76
2023-05-01T05:30:01.845Z,10.92
2023-05-01T05:31:02.076Z,11.29
2023-05-01T05:32:02.338Z,11.40
2023-05-01T05:33:02.689Z,11.60
2023-05-01T05:34:02.788Z,11.66
2023-05-01T05:35:02.967Z,11.50
2023-05-01T05:36:03.194Z,11.33
2023-05-01T05:37:03.425Z,11.17
2023-05-01T05:38:03.607Z,11.10
2023-05-01T05:39:03.978Z,10.97
2023-05-01T05:40:04.026Z,10.94
2023-05-01T05:41:04.263Z,10.75
2023-05-01T05:42:04.485Z,10.71
2023-05-01T05:43:04.693Z,10.74
2023-05-01T05:44:04.987Z,10.69
2023-05-01T05:45:05.122Z,10.72
2023-05-01T05:46:05.363Z,10.63
2023-05-01T05:47:05.539Z,10.74
2023-05-01T05:48:05.792Z,10.81
2023-05-01T05:49:06.022Z,10.76
2023-05-01T05:50:06.176Z,10.81
2023-05-01T05:51:06.385Z,11.00
2023-05-01T05:52:06.597Z,11.19
2023-05-01T05:53:06.860Z,11.32
2023-05-01T05:54:07.139Z,11.37
2023-05-01T05:55:07.298Z,11.43
2023-05-01T05:56:07.505Z,11.52
2023-05-01T05:57:07.661Z,11.33
2023-05-01T05:58:07.918Z,11.30
2023-05-01T05:59:08.033Z,11.37
2023-05-01T06:00:08.206Z,11.32
2023-05-01T06:01:08.402Z,11.41
2023-05-01T06:02:08.597Z,11.43
2023-05-01T06:03:08.942Z,11.33
2023-05-01T06:04:08.924Z,11.40
2023-05-01T06:05:09.156Z,11.29
2023-05-01T06:06:09.602Z,11.35
2023-05-01T06:07:09.468Z,11.43
2023-05-01T06:08:09.670Z,11.36
2023-05-01T06:09:13.078Z,11.40
2023-05-01T06:10:10.140Z,11.41
2023-05-01T06:11:10.140Z,11.52
2023-05-01T06:12:10.304Z,11.59
2023-05-01T06:13:14.000Z,11.86
2023-05-01T06:14:10.665Z,12.06
2023-05-01T06:15:10.759Z,12.31
2023-05-01T06:16:10.956Z,12.72
2023-05-01T06:17:11.098Z,12.98
2023-05-01T06:18:11.278Z,13.20
2023-05-01T06:19:11.429Z,13.53
2023-05-01T06:20:11.619Z,13.65
2023-05-01T06:21:11.707Z,13.92
2023-05-01T06:22:11.842Z,14.15
2023-05-01T06:23:11.985Z,14.18
2023-05-01T06:24:12.282Z,14.08
2023-05-01T06:25:12.324Z,13.90
2023-05-01T06:26:12.446Z,13.79
2023-05-01T06:27:12.603Z,13.70
2023-05-01T06:28:12.783Z,13.62
2023-05-01T06:29:12.934Z,13.60
2023-05-01T06:30:13.081Z,13.49
2023-05-01T06:31:13.238Z,13.46
2023-05-01T06:32:13.348Z,13.39
2023-05-01T06:33:13.565Z,13.38
2023-05-01T06:34:13.883Z,13.35
2023-05-01T06:35:13.782Z,13.38
2023-05-01T06:36:13.916Z,13.37
2023-05-01T06:37:14.043Z,13.35
2023-05-01T06:38:14.178Z,13.33
2023-05-01T06:39:14.392Z,13.49
2023-05-01T06:40:14.496Z,13.47
2023-05-01T06:41:14.602Z,13.53
2023-05-01T06:42:14.745Z,13.50
2023-05-01T06:43:14.885Z,13.53
2023-05-01T06:44:15.048Z,13.56
2023-05-01T06:45:15.181Z,13.57
2023-05-01T06:46:15.375Z,13.59
2023-05-01T06:47:15.525Z,13.54
2023-05-01T06:48:15.601Z,13.52
2023-05-01T06:49:15.719Z,13.71
2023-05-01T06:50:15.950Z,13.67
2023-05-01T06:51:16.039Z,13.72
2023-05-01T06:52:16.174Z,13.83
2023-05-01T06:53:16.316Z,13.81
2023-05-01T06:54:16.472Z,13.87
2023-05-01T06:55:16.630Z,13.97
2023-05-01T06:56:16.782Z,14.07
2023-05-01T06:57:16.929Z,14.14
2023-05-01T06:59:17.279Z,14.17
2023-05-01T07:00:17.425Z,14.29
2023-05-01T07:01:17.711Z,14.26
2023-05-01T07:02:17.824Z,14.33
2023-05-01T07:03:18.015Z,14.48
2023-05-01T07:04:18.070Z,14.50
2023-05-01T07:05:18.270Z,14.55
2023-05-01T07:06:18.433Z,14.69
2023-05-01T07:07:18.544Z,14.70
2023-05-01T07:08:18.719Z,14.86
2023-05-01T07:09:18.868Z,14.88
2023-05-01T07:10:19.070Z,14.94
2023-05-01T07:11:19.204Z,14.99
2023-05-01T07:12:19.347Z,15.09
2023-05-01T07:13:19.698Z,15.17
2023-05-01T07:14:19.898Z,15.17
2023-05-01T07:15:19.829Z,15.19
2023-05-01T07:16:20.015Z,15.27
2023-05-01T07:17:20.199Z,15.24
2023-05-01T07:18:20.312Z,15.18
2023-05-01T07:19:20.536Z,15.33
2023-05-01T07:20:20.612Z,15.46
2023-05-01T07:21:20.763Z,15.40
2023-05-01T07:22:20.869Z,15.47
2023-05-01T07:23:21.029Z,15.51
2023-05-01T07:24:21.259Z,15.57
2023-05-01T07:25:21.254Z,15.68
2023-05-01T07:26:21.425Z,15.65
2023-05-01T07:27:21.501Z,15.68
2023-05-01T07:28:21.614Z,15.72
2023-05-01T07:29:21.729Z,15.79
2023-05-01T07:30:21.874Z,15.88
2023-05-01T07:31:22.060Z,15.84
2023-05-01T07:32:22.209Z,15.97
2023-05-01T07:33:22.280Z,15.95
2023-05-01T07:34:22.410Z,15.94
2023-05-01T07:35:22.543Z,16.05
2023-05-01T07:36:22.708Z,16.08
2023-05-01T07:37:22.811Z,16.16
2023-05-01T07:38:22.940Z,16.04
2023-05-01T07:39:23.076Z,16.21
2023-05-01T07:40:23.213Z,16.21
2023-05-01T07:41:23.356Z,16.26
2023-05-01T07:42:23.490Z,16.26
2023-05-01T07:43:23.599Z,16.33
2023-05-01T07:44:23.779Z,16.60
2023-05-01T07:45:23.815Z,16.96
2023-05-01T07:46:24.064Z,17.23
2023-05-01T07:47:24.000Z,17.65
2023-05-01T07:48:24.069Z,18.10
2023-05-01T07:49:24.173Z,18.44
2023-05-01T07:50:24.252Z,18.84
2023-05-01T07:51:24.319Z,19.41
2023-05-01T07:52:24.353Z,19.96
2023-05-01T07:53:24.447Z,20.39
2023-05-01T07:54:24.491Z,20.66
2023-05-01T07:55:24.614Z,20.97
2023-05-01T07:56:24.694Z,21.03
2023-05-01T07:57:24.739Z,21.17
2023-05-01T07:58:24.838Z,21.39
2023-05-01T07:59:24.892Z,21.55
2023-05-01T08:00:25.090Z,21.61
2023-05-01T08:01:25.035Z,21.67
2023-05-01T08:02:25.176Z,21.70
2023-05-01T08:03:25.374Z,21.82
2023-05-01T08:04:25.276Z,22.00
2023-05-01T08:05:25.256Z,22.14
2023-05-01T08:06:25.402Z,22.11
2023-05-01T08:07:25.353Z,22.07
2023-05-01T08:08:25.424Z,22.06
2023-05-01T08:09:25.448Z,22.10
